Devils Tower, Wyoming
Current Conditions -  °F | °C
As of 7:35 AM on Thursday 23 Oct 2014 (Local Time) from KW43 Reporting Station
Clear Clear  
Wind Chill: 31°   Ceiling: Unl
Heat Index: 37°   Visibility: 10mi
Dew Point: 25°   Wind: 8mph
Humidity: 60%   Direction: 240°WSW
Pressure: 29.97"   Gusts: NA
Location:  44.59°N, 104.7°W
Report Text: KW43 231335Z AUTO 24007KT 10SM CLR 03/M04 A2997 RMK AO2
Loading
Personal Weather Stations






























Interactive Weather Map
Tropical Storm Tracking
New forecast layout! Learn more

10-Day Weather Forecast

Advertisements
Track Severe Weather on mobile